sensor_id;sensor_type;location;lat;lon;timestamp;temperature;humidity
36710;DHT22;22694;51.040;3.684;2022-11-20T00:00:57;14.50;86.60
36710;DHT22;22694;51.040;3.684;2022-11-20T00:03:29;14.50;86.60
36710;DHT22;22694;51.040;3.684;2022-11-20T00:06:00;14.50;86.70
36710;DHT22;22694;51.040;3.684;2022-11-20T00:08:25;14.50;86.80
36710;DHT22;22694;51.040;3.684;2022-11-20T00:10:51;14.40;86.80
36710;DHT22;22694;51.040;3.684;2022-11-20T00:13:16;14.40;86.90
36710;DHT22;22694;51.040;3.684;2022-11-20T00:15:42;14.40;87.00
36710;DHT22;22694;51.040;3.684;2022-11-20T00:18:08;14.40;86.90
36710;DHT22;22694;51.040;3.684;2022-11-20T00:20:33;14.30;87.00
36710;DHT22;22694;51.040;3.684;2022-11-20T00:22:59;14.30;87.00
36710;DHT22;22694;51.040;3.684;2022-11-20T00:25:24;14.20;86.80
36710;DHT22;22694;51.040;3.684;2022-11-20T00:27:50;14.20;87.00
36710;DHT22;22694;51.040;3.684;2022-11-20T00:30:16;14.20;87.10
36710;DHT22;22694;51.040;3.684;2022-11-20T00:32:41;14.20;87.40
36710;DHT22;22694;51.040;3.684;2022-11-20T00:35:07;14.20;87.60
36710;DHT22;22694;51.040;3.684;2022-11-20T00:37:33;14.20;87.60
36710;DHT22;22694;51.040;3.684;2022-11-20T00:39:58;14.10;87.40
36710;DHT22;22694;51.040;3.684;2022-11-20T00:42:24;14.10;87.30
36710;DHT22;22694;51.040;3.684;2022-11-20T00:44:49;14.10;87.40
36710;DHT22;22694;51.040;3.684;2022-11-20T00:47:15;14.00;87.40
36710;DHT22;22694;51.040;3.684;2022-11-20T00:49:41;14.00;87.40
36710;DHT22;22694;51.040;3.684;2022-11-20T00:52:06;14.00;87.30
36710;DHT22;22694;51.040;3.684;2022-11-20T00:54:32;14.00;87.30
36710;DHT22;22694;51.040;3.684;2022-11-20T00:56:57;14.00;87.40
36710;DHT22;22694;51.040;3.684;2022-11-20T00:59:23;13.90;87.50
36710;DHT22;22694;51.040;3.684;2022-11-20T01:01:48;13.90;87.40
36710;DHT22;22694;51.040;3.684;2022-11-20T01:04:14;13.80;87.40
36710;DHT22;22694;51.040;3.684;2022-11-20T01:06:40;13.80;87.40
36710;DHT22;22694;51.040;3.684;2022-11-20T01:09:09;13.80;87.50
36710;DHT22;22694;51.040;3.684;2022-11-20T01:11:36;13.80;87.50
36710;DHT22;22694;51.040;3.684;2022-11-20T01:14:04;13.70;87.60
36710;DHT22;22694;51.040;3.684;2022-11-20T01:16:42;13.70;87.50
36710;DHT22;22694;51.040;3.684;2022-11-20T01:19:14;13.70;87.60
36710;DHT22;22694;51.040;3.684;2022-11-20T01:21:42;13.70;87.70
36710;DHT22;22694;51.040;3.684;2022-11-20T01:24:11;13.60;87.60
36710;DHT22;22694;51.040;3.684;2022-11-20T01:26:38;13.60;87.80
36710;DHT22;22694;51.040;3.684;2022-11-20T01:29:04;13.60;87.80
36710;DHT22;22694;51.040;3.684;2022-11-20T01:31:32;13.60;87.90
36710;DHT22;22694;51.040;3.684;2022-11-20T01:34:00;13.60;87.80
36710;DHT22;22694;51.040;3.684;2022-11-20T01:36:28;13.60;88.10
36710;DHT22;22694;51.040;3.684;2022-11-20T01:39:03;13.50;88.00
36710;DHT22;22694;51.040;3.684;2022-11-20T01:41:31;13.50;88.10
36710;DHT22;22694;51.040;3.684;2022-11-20T01:44:18;13.50;88.20
36710;DHT22;22694;51.040;3.684;2022-11-20T01:47:00;13.50;88.20
36710;DHT22;22694;51.040;3.684;2022-11-20T01:49:34;13.50;88.20
36710;DHT22;22694;51.040;3.684;2022-11-20T01:52:19;13.50;88.30
36710;DHT22;22694;51.040;3.684;2022-11-20T01:57:35;13.40;88.30
36710;DHT22;22694;51.040;3.684;2022-11-20T02:00:12;13.40;88.40
36710;DHT22;22694;51.040;3.684;2022-11-20T02:02:40;13.40;88.40
36710;DHT22;22694;51.040;3.684;2022-11-20T02:05:27;13.30;88.30
36710;DHT22;22694;51.040;3.684;2022-11-20T02:07:55;13.30;88.40
36710;DHT22;22694;51.040;3.684;2022-11-20T02:10:21;13.30;88.40
36710;DHT22;22694;51.040;3.684;2022-11-20T02:12:47;13.30;88.40
36710;DHT22;22694;51.040;3.684;2022-11-20T02:15:33;13.30;88.50
36710;DHT22;22694;51.040;3.684;2022-11-20T02:17:59;13.30;88.40
36710;DHT22;22694;51.040;3.684;2022-11-20T02:20:25;13.20;88.40
36710;DHT22;22694;51.040;3.684;2022-11-20T02:22:58;13.20;88.40
36710;DHT22;22694;51.040;3.684;2022-11-20T02:25:26;13.20;88.60
36710;DHT22;22694;51.040;3.684;2022-11-20T02:27:52;13.20;88.60
36710;DHT22;22694;51.040;3.684;2022-11-20T02:30:18;13.20;88.70
36710;DHT22;22694;51.040;3.684;2022-11-20T02:32:44;13.10;88.50
36710;DHT22;22694;51.040;3.684;2022-11-20T02:37:57;13.10;88.50
36710;DHT22;22694;51.040;3.684;2022-11-20T02:40:23;13.10;88.70
36710;DHT22;22694;51.040;3.684;2022-11-20T02:42:56;13.10;88.80
36710;DHT22;22694;51.040;3.684;2022-11-20T02:45:22;13.10;88.70
36710;DHT22;22694;51.040;3.684;2022-11-20T02:47:51;13.10;88.80
36710;DHT22;22694;51.040;3.684;2022-11-20T02:50:17;13.00;88.70
36710;DHT22;22694;51.040;3.684;2022-11-20T02:52:43;13.00;88.70
36710;DHT22;22694;51.040;3.684;2022-11-20T02:55:09;13.00;88.70
36710;DHT22;22694;51.040;3.684;2022-11-20T02:57:34;13.00;88.60
36710;DHT22;22694;51.040;3.684;2022-11-20T03:00:00;13.00;88.80
36710;DHT22;22694;51.040;3.684;2022-11-20T03:02:29;13.00;88.90
36710;DHT22;22694;51.040;3.684;2022-11-20T03:04:54;12.90;88.80
36710;DHT22;22694;51.040;3.684;2022-11-20T03:07:20;12.90;88.80
36710;DHT22;22694;51.040;3.684;2022-11-20T03:09:45;12.90;88.80
36710;DHT22;22694;51.040;3.684;2022-11-20T03:12:11;12.90;88.90
36710;DHT22;22694;51.040;3.684;2022-11-20T03:14:36;12.90;88.80
36710;DHT22;22694;51.040;3.684;2022-11-20T03:17:02;12.90;88.90
36710;DHT22;22694;51.040;3.684;2022-11-20T03:19:28;12.80;89.00
36710;DHT22;22694;51.040;3.684;2022-11-20T03:21:53;12.90;89.00
36710;DHT22;22694;51.040;3.684;2022-11-20T03:24:19;12.90;89.00
36710;DHT22;22694;51.040;3.684;2022-11-20T03:26:44;12.90;89.10
36710;DHT22;22694;51.040;3.684;2022-11-20T03:29:10;12.80;89.00
36710;DHT22;22694;51.040;3.684;2022-11-20T03:31:38;12.80;89.00
36710;DHT22;22694;51.040;3.684;2022-11-20T03:34:09;12.80;89.20
36710;DHT22;22694;51.040;3.684;2022-11-20T03:36:34;12.80;89.20
36710;DHT22;22694;51.040;3.684;2022-11-20T03:39:00;12.80;89.20
36710;DHT22;22694;51.040;3.684;2022-11-20T03:41:29;12.80;89.30
36710;DHT22;22694;51.040;3.684;2022-11-20T03:46:22;12.80;89.90
36710;DHT22;22694;51.040;3.684;2022-11-20T03:48:48;12.70;89.30
36710;DHT22;22694;51.040;3.684;2022-11-20T03:51:52;12.70;89.20
36710;DHT22;22694;51.040;3.684;2022-11-20T03:54:10;12.70;89.30
36710;DHT22;22694;51.040;3.684;2022-11-20T03:56:38;12.70;89.30
36710;DHT22;22694;51.040;3.684;2022-11-20T03:59:05;12.70;89.30
36710;DHT22;22694;51.040;3.684;2022-11-20T04:01:32;12.70;89.40
36710;DHT22;22694;51.040;3.684;2022-11-20T04:03:58;12.70;89.40
36710;DHT22;22694;51.040;3.684;2022-11-20T04:06:29;12.60;89.20
36710;DHT22;22694;51.040;3.684;2022-11-20T04:08:56;12.60;89.30
36710;DHT22;22694;51.040;3.684;2022-11-20T04:11:28;12.60;89.50
36710;DHT22;22694;51.040;3.684;2022-11-20T04:13:59;12.70;89.40
36710;DHT22;22694;51.040;3.684;2022-11-20T04:16:28;12.60;89.40
36710;DHT22;22694;51.040;3.684;2022-11-20T04:18:55;12.60;89.40
36710;DHT22;22694;51.040;3.684;2022-11-20T04:21:22;12.60;89.50
36710;DHT22;22694;51.040;3.684;2022-11-20T04:23:49;12.60;89.50
36710;DHT22;22694;51.040;3.684;2022-11-20T04:26:15;12.60;89.60
36710;DHT22;22694;51.040;3.684;2022-11-20T04:28:41;12.60;89.60
36710;DHT22;22694;51.040;3.684;2022-11-20T04:31:12;12.60;89.50
36710;DHT22;22694;51.040;3.684;2022-11-20T04:33:38;12.60;89.60
36710;DHT22;22694;51.040;3.684;2022-11-20T04:36:14;12.50;89.60
36710;DHT22;22694;51.040;3.684;2022-11-20T04:38:41;12.60;89.70
36710;DHT22;22694;51.040;3.684;2022-11-20T04:41:17;12.50;89.60
36710;DHT22;22694;51.040;3.684;2022-11-20T04:43:46;12.50;89.60
36710;DHT22;22694;51.040;3.684;2022-11-20T04:46:14;12.50;89.60
36710;DHT22;22694;51.040;3.684;2022-11-20T04:48:39;12.50;89.60
36710;DHT22;22694;51.040;3.684;2022-11-20T04:51:05;12.50;89.60
36710;DHT22;22694;51.040;3.684;2022-11-20T04:53:31;12.40;89.60
36710;DHT22;22694;51.040;3.684;2022-11-20T04:56:01;12.50;89.60
36710;DHT22;22694;51.040;3.684;2022-11-20T04:58:28;12.50;89.70
36710;DHT22;22694;51.040;3.684;2022-11-20T05:00:59;12.50;89.80
36710;DHT22;22694;51.040;3.684;2022-11-20T05:03:25;12.50;89.80
36710;DHT22;22694;51.040;3.684;2022-11-20T05:05:51;12.40;89.70
36710;DHT22;22694;51.040;3.684;2022-11-20T05:08:16;12.40;90.10
36710;DHT22;22694;51.040;3.684;2022-11-20T05:10:42;12.40;89.80
36710;DHT22;22694;51.040;3.684;2022-11-20T05:13:07;12.40;89.80
36710;DHT22;22694;51.040;3.684;2022-11-20T05:15:33;12.40;89.80
36710;DHT22;22694;51.040;3.684;2022-11-20T05:17:58;12.40;89.80
36710;DHT22;22694;51.040;3.684;2022-11-20T05:20:24;12.40;89.80
36710;DHT22;22694;51.040;3.684;2022-11-20T05:22:50;12.40;89.80
36710;DHT22;22694;51.040;3.684;2022-11-20T05:25:15;12.30;90.20
36710;DHT22;22694;51.040;3.684;2022-11-20T05:27:41;12.30;89.90
36710;DHT22;22694;51.040;3.684;2022-11-20T05:30:07;12.30;89.90
36710;DHT22;22694;51.040;3.684;2022-11-20T05:32:33;12.30;90.00
36710;DHT22;22694;51.040;3.684;2022-11-20T05:34:59;12.30;89.90
36710;DHT22;22694;51.040;3.684;2022-11-20T05:37:24;12.30;90.00
36710;DHT22;22694;51.040;3.684;2022-11-20T05:39:50;12.30;90.00
36710;DHT22;22694;51.040;3.684;2022-11-20T05:42:15;12.30;90.00
36710;DHT22;22694;51.040;3.684;2022-11-20T05:45:00;12.30;90.00
36710;DHT22;22694;51.040;3.684;2022-11-20T05:47:27;12.30;90.00
36710;DHT22;22694;51.040;3.684;2022-11-20T05:49:53;12.30;90.00
36710;DHT22;22694;51.040;3.684;2022-11-20T05:52:18;12.20;90.00
36710;DHT22;22694;51.040;3.684;2022-11-20T05:54:44;12.30;90.00
36710;DHT22;22694;51.040;3.684;2022-11-20T05:57:10;12.20;90.00
36710;DHT22;22694;51.040;3.684;2022-11-20T05:59:35;12.30;90.00
36710;DHT22;22694;51.040;3.684;2022-11-20T06:02:01;12.20;90.00
36710;DHT22;22694;51.040;3.684;2022-11-20T06:04:26;12.20;90.00
36710;DHT22;22694;51.040;3.684;2022-11-20T06:06:52;12.20;90.00
36710;DHT22;22694;51.040;3.684;2022-11-20T06:09:17;12.20;90.00
36710;DHT22;22694;51.040;3.684;2022-11-20T06:11:43;12.20;90.00
36710;DHT22;22694;51.040;3.684;2022-11-20T06:14:09;12.20;90.30
36710;DHT22;22694;51.040;3.684;2022-11-20T06:16:34;12.20;90.10
36710;DHT22;22694;51.040;3.684;2022-11-20T06:19:00;12.20;90.10
36710;DHT22;22694;51.040;3.684;2022-11-20T06:21:25;12.20;90.10
36710;DHT22;22694;51.040;3.684;2022-11-20T06:23:52;12.20;90.10
36710;DHT22;22694;51.040;3.684;2022-11-20T06:26:21;12.20;90.10
36710;DHT22;22694;51.040;3.684;2022-11-20T06:28:47;12.20;90.10
36710;DHT22;22694;51.040;3.684;2022-11-20T06:31:14;12.20;90.10
36710;DHT22;22694;51.040;3.684;2022-11-20T06:33:41;12.20;90.10
36710;DHT22;22694;51.040;3.684;2022-11-20T06:36:08;12.20;90.10
36710;DHT22;22694;51.040;3.684;2022-11-20T06:38:34;12.10;90.10
36710;DHT22;22694;51.040;3.684;2022-11-20T06:41:00;12.20;90.10
36710;DHT22;22694;51.040;3.684;2022-11-20T06:43:26;12.20;90.40
36710;DHT22;22694;51.040;3.684;2022-11-20T06:45:57;12.20;90.20
36710;DHT22;22694;51.040;3.684;2022-11-20T06:48:24;12.20;90.20
36710;DHT22;22694;51.040;3.684;2022-11-20T06:50:50;12.10;90.20
36710;DHT22;22694;51.040;3.684;2022-11-20T06:53:16;12.20;90.20
36710;DHT22;22694;51.040;3.684;2022-11-20T06:55:43;12.20;90.50
36710;DHT22;22694;51.040;3.684;2022-11-20T06:58:09;12.10;90.20
36710;DHT22;22694;51.040;3.684;2022-11-20T07:00:35;12.10;90.20
36710;DHT22;22694;51.040;3.684;2022-11-20T07:03:05;12.10;90.20
36710;DHT22;22694;51.040;3.684;2022-11-20T07:05:30;12.10;90.20
36710;DHT22;22694;51.040;3.684;2022-11-20T07:07:57;12.10;90.20
36710;DHT22;22694;51.040;3.684;2022-11-20T07:10:23;12.10;90.20
36710;DHT22;22694;51.040;3.684;2022-11-20T07:12:52;12.10;90.20
36710;DHT22;22694;51.040;3.684;2022-11-20T07:15:19;12.10;90.20
36710;DHT22;22694;51.040;3.684;2022-11-20T07:17:45;12.10;90.20
36710;DHT22;22694;51.040;3.684;2022-11-20T07:20:12;12.10;90.30
36710;DHT22;22694;51.040;3.684;2022-11-20T07:22:38;12.10;90.30
36710;DHT22;22694;51.040;3.684;2022-11-20T07:25:04;12.10;90.30
36710;DHT22;22694;51.040;3.684;2022-11-20T07:27:30;12.10;90.30
36710;DHT22;22694;51.040;3.684;2022-11-20T07:29:56;12.00;90.20
36710;DHT22;22694;51.040;3.684;2022-11-20T07:32:22;12.10;90.30
36710;DHT22;22694;51.040;3.684;2022-11-20T07:34:47;12.10;90.30
36710;DHT22;22694;51.040;3.684;2022-11-20T07:37:13;12.10;90.40
36710;DHT22;22694;51.040;3.684;2022-11-20T07:39:39;12.10;90.30
36710;DHT22;22694;51.040;3.684;2022-11-20T07:42:06;12.10;90.30
36710;DHT22;22694;51.040;3.684;2022-11-20T07:44:32;12.10;90.40
36710;DHT22;22694;51.040;3.684;2022-11-20T07:46:57;12.10;90.40
36710;DHT22;22694;51.040;3.684;2022-11-20T07:49:23;12.10;90.40
36710;DHT22;22694;51.040;3.684;2022-11-20T07:51:52;12.10;90.40
36710;DHT22;22694;51.040;3.684;2022-11-20T07:54:21;12.10;90.40
36710;DHT22;22694;51.040;3.684;2022-11-20T07:56:47;12.00;90.30
36710;DHT22;22694;51.040;3.684;2022-11-20T07:59:13;12.10;90.50
36710;DHT22;22694;51.040;3.684;2022-11-20T08:01:39;12.10;90.60
36710;DHT22;22694;51.040;3.684;2022-11-20T08:04:05;12.20;90.80
36710;DHT22;22694;51.040;3.684;2022-11-20T08:06:31;12.30;90.90
36710;DHT22;22694;51.040;3.684;2022-11-20T08:08:57;12.40;92.40
36710;DHT22;22694;51.040;3.684;2022-11-20T08:11:22;12.60;92.30
36710;DHT22;22694;51.040;3.684;2022-11-20T08:14:07;12.60;92.20
36710;DHT22;22694;51.040;3.684;2022-11-20T08:16:40;12.70;91.70
36710;DHT22;22694;51.040;3.684;2022-11-20T08:19:06;12.70;91.50
36710;DHT22;22694;51.040;3.684;2022-11-20T08:21:32;12.80;91.40
36710;DHT22;22694;51.040;3.684;2022-11-20T08:23:58;12.70;91.30
36710;DHT22;22694;51.040;3.684;2022-11-20T08:26:25;12.80;91.30
36710;DHT22;22694;51.040;3.684;2022-11-20T08:28:54;12.80;91.20
36710;DHT22;22694;51.040;3.684;2022-11-20T08:31:21;12.80;91.20
36710;DHT22;22694;51.040;3.684;2022-11-20T08:33:47;12.90;91.20
36710;DHT22;22694;51.040;3.684;2022-11-20T08:36:13;12.80;91.10
36710;DHT22;22694;51.040;3.684;2022-11-20T08:38:39;12.80;91.10
36710;DHT22;22694;51.040;3.684;2022-11-20T08:41:05;12.80;91.10
36710;DHT22;22694;51.040;3.684;2022-11-20T08:43:53;12.90;91.10
36710;DHT22;22694;51.040;3.684;2022-11-20T08:46:20;12.90;91.10
36710;DHT22;22694;51.040;3.684;2022-11-20T08:48:45;12.90;91.10
36710;DHT22;22694;51.040;3.684;2022-11-20T08:51:12;12.90;91.00
36710;DHT22;22694;51.040;3.684;2022-11-20T08:53:39;12.90;91.10
36710;DHT22;22694;51.040;3.684;2022-11-20T08:56:05;13.00;91.20
36710;DHT22;22694;51.040;3.684;2022-11-20T08:58:31;13.10;91.50
36710;DHT22;22694;51.040;3.684;2022-11-20T09:00:56;13.20;91.70
36710;DHT22;22694;51.040;3.684;2022-11-20T09:03:22;13.20;92.00
36710;DHT22;22694;51.040;3.684;2022-11-20T09:05:48;13.40;93.90
36710;DHT22;22694;51.040;3.684;2022-11-20T09:08:14;13.60;93.90
36710;DHT22;22694;51.040;3.684;2022-11-20T09:10:39;13.70;93.20
36710;DHT22;22694;51.040;3.684;2022-11-20T09:13:05;13.70;92.60
36710;DHT22;22694;51.040;3.684;2022-11-20T09:15:31;13.70;92.10
36710;DHT22;22694;51.040;3.684;2022-11-20T09:18:02;13.70;91.80
36710;DHT22;22694;51.040;3.684;2022-11-20T09:20:29;13.70;91.60
36710;DHT22;22694;51.040;3.684;2022-11-20T09:22:56;13.70;91.50
36710;DHT22;22694;51.040;3.684;2022-11-20T09:25:22;13.60;91.20
36710;DHT22;22694;51.040;3.684;2022-11-20T09:27:47;13.60;91.10
36710;DHT22;22694;51.040;3.684;2022-11-20T09:30:16;13.50;91.00
36710;DHT22;22694;51.040;3.684;2022-11-20T09:32:42;13.70;92.10
36710;DHT22;22694;51.040;3.684;2022-11-20T09:35:09;13.90;93.50
36710;DHT22;22694;51.040;3.684;2022-11-20T09:37:35;14.10;93.30
36710;DHT22;22694;51.040;3.684;2022-11-20T09:40:01;14.30;92.80
36710;DHT22;22694;51.040;3.684;2022-11-20T09:45:42;14.90;91.30
36710;DHT22;22694;51.040;3.684;2022-11-20T09:50:52;15.30;90.00
36710;DHT22;22694;51.040;3.684;2022-11-20T09:53:30;15.50;89.00
36710;DHT22;22694;51.040;3.684;2022-11-20T09:56:01;15.60;87.60
36710;DHT22;22694;51.040;3.684;2022-11-20T09:58:43;15.70;86.10
36710;DHT22;22694;51.040;3.684;2022-11-20T10:01:30;15.70;85.40
36710;DHT22;22694;51.040;3.684;2022-11-20T10:04:18;15.90;84.80
36710;DHT22;22694;51.040;3.684;2022-11-20T10:09:34;16.00;83.10
36710;DHT22;22694;51.040;3.684;2022-11-20T10:20:57;16.10;81.40
36710;DHT22;22694;51.040;3.684;2022-11-20T10:26:30;16.30;81.40
36710;DHT22;22694;51.040;3.684;2022-11-20T10:29:15;16.30;81.50
36710;DHT22;22694;51.040;3.684;2022-11-20T10:31:44;16.30;81.30
36710;DHT22;22694;51.040;3.684;2022-11-20T10:37:17;16.30;81.00
36710;DHT22;22694;51.040;3.684;2022-11-20T10:42:21;16.40;80.70
36710;DHT22;22694;51.040;3.684;2022-11-20T10:45:01;16.50;80.80
36710;DHT22;22694;51.040;3.684;2022-11-20T10:47:30;16.40;80.60
36710;DHT22;22694;51.040;3.684;2022-11-20T10:50:00;16.50;80.70
36710;DHT22;22694;51.040;3.684;2022-11-20T10:55:52;16.40;81.30
36710;DHT22;22694;51.040;3.684;2022-11-20T10:58:29;16.40;81.50
36710;DHT22;22694;51.040;3.684;2022-11-20T11:01:15;16.40;81.70
36710;DHT22;22694;51.040;3.684;2022-11-20T11:03:41;16.30;81.80
36710;DHT22;22694;51.040;3.684;2022-11-20T11:06:21;16.20;81.80
36710;DHT22;22694;51.040;3.684;2022-11-20T11:08:51;16.10;82.40
36710;DHT22;22694;51.040;3.684;2022-11-20T11:11:24;16.00;83.00
36710;DHT22;22694;51.040;3.684;2022-11-20T11:13:50;15.90;83.60
36710;DHT22;22694;51.040;3.684;2022-11-20T11:16:24;15.80;84.10
36710;DHT22;22694;51.040;3.684;2022-11-20T11:18:51;15.80;84.70
36710;DHT22;22694;51.040;3.684;2022-11-20T11:21:26;15.70;83.40
36710;DHT22;22694;51.040;3.684;2022-11-20T11:24:01;15.50;82.40
36710;DHT22;22694;51.040;3.684;2022-11-20T11:26:28;15.30;82.50
36710;DHT22;22694;51.040;3.684;2022-11-20T11:28:58;15.20;83.00
36710;DHT22;22694;51.040;3.684;2022-11-20T11:31:30;15.10;83.40
36710;DHT22;22694;51.040;3.684;2022-11-20T11:34:13;15.00;83.80
36710;DHT22;22694;51.040;3.684;2022-11-20T11:36:40;14.90;84.20
36710;DHT22;22694;51.040;3.684;2022-11-20T11:39:11;14.80;84.50
36710;DHT22;22694;51.040;3.684;2022-11-20T11:41:40;14.70;85.00
36710;DHT22;22694;51.040;3.684;2022-11-20T11:44:21;14.70;85.40
36710;DHT22;22694;51.040;3.684;2022-11-20T11:47:25;14.70;86.00
36710;DHT22;22694;51.040;3.684;2022-11-20T11:50:22;14.80;87.00
36710;DHT22;22694;51.040;3.684;2022-11-20T11:53:09;14.80;86.20
36710;DHT22;22694;51.040;3.684;2022-11-20T12:00:57;14.80;88.10
36710;DHT22;22694;51.040;3.684;2022-11-20T12:03:40;14.90;88.80
36710;DHT22;22694;51.040;3.684;2022-11-20T12:06:11;15.00;90.00
36710;DHT22;22694;51.040;3.684;2022-11-20T12:09:05;15.00;90.20
36710;DHT22;22694;51.040;3.684;2022-11-20T12:14:21;15.10;90.40
36710;DHT22;22694;51.040;3.684;2022-11-20T12:16:52;15.10;90.50
36710;DHT22;22694;51.040;3.684;2022-11-20T12:19:18;15.20;90.60
36710;DHT22;22694;51.040;3.684;2022-11-20T12:22:22;15.20;90.50
36710;DHT22;22694;51.040;3.684;2022-11-20T12:27:54;15.30;90.40
36710;DHT22;22694;51.040;3.684;2022-11-20T12:30:25;15.30;90.20
36710;DHT22;22694;51.040;3.684;2022-11-20T12:33:24;15.30;90.10
36710;DHT22;22694;51.040;3.684;2022-11-20T12:39:54;15.20;89.00
36710;DHT22;22694;51.040;3.684;2022-11-20T12:48:10;14.90;87.80
36710;DHT22;22694;51.040;3.684;2022-11-20T12:53:44;14.80;88.30
36710;DHT22;22694;51.040;3.684;2022-11-20T13:07:26;14.60;89.00
36710;DHT22;22694;51.040;3.684;2022-11-20T13:09:53;14.60;89.10
36710;DHT22;22694;51.040;3.684;2022-11-20T13:12:38;14.50;89.00
36710;DHT22;22694;51.040;3.684;2022-11-20T13:17:59;14.50;89.30
36710;DHT22;22694;51.040;3.684;2022-11-20T13:20:26;14.50;89.30
36710;DHT22;22694;51.040;3.684;2022-11-20T13:22:53;14.50;89.40
36710;DHT22;22694;51.040;3.684;2022-11-20T13:25:33;14.40;90.00
36710;DHT22;22694;51.040;3.684;2022-11-20T13:28:03;14.40;89.30
36710;DHT22;22694;51.040;3.684;2022-11-20T13:30:30;14.40;89.40
36710;DHT22;22694;51.040;3.684;2022-11-20T13:33:08;14.40;89.60
36710;DHT22;22694;51.040;3.684;2022-11-20T13:35:40;14.30;89.60
36710;DHT22;22694;51.040;3.684;2022-11-20T13:38:12;14.30;89.70
36710;DHT22;22694;51.040;3.684;2022-11-20T13:43:35;14.30;90.00
36710;DHT22;22694;51.040;3.684;2022-11-20T13:46:05;14.30;90.20
36710;DHT22;22694;51.040;3.684;2022-11-20T13:48:39;14.20;90.00
36710;DHT22;22694;51.040;3.684;2022-11-20T13:54:09;14.20;90.00
36710;DHT22;22694;51.040;3.684;2022-11-20T13:57:06;14.20;90.10
36710;DHT22;22694;51.040;3.684;2022-11-20T13:59:46;14.20;90.10
36710;DHT22;22694;51.040;3.684;2022-11-20T14:02:18;14.20;90.20
36710;DHT22;22694;51.040;3.684;2022-11-20T14:04:47;14.20;90.20
36710;DHT22;22694;51.040;3.684;2022-11-20T14:07:14;14.10;90.20
36710;DHT22;22694;51.040;3.684;2022-11-20T14:09:55;14.10;90.20
36710;DHT22;22694;51.040;3.684;2022-11-20T14:12:31;14.20;90.20
36710;DHT22;22694;51.040;3.684;2022-11-20T14:14:57;14.10;90.30
36710;DHT22;22694;51.040;3.684;2022-11-20T14:17:30;14.10;90.40
36710;DHT22;22694;51.040;3.684;2022-11-20T14:20:11;14.10;90.40
36710;DHT22;22694;51.040;3.684;2022-11-20T14:22:37;14.20;90.50
36710;DHT22;22694;51.040;3.684;2022-11-20T14:27:59;14.40;90.70
36710;DHT22;22694;51.040;3.684;2022-11-20T14:30:27;14.50;90.70
36710;DHT22;22694;51.040;3.684;2022-11-20T14:32:56;14.50;90.70
36710;DHT22;22694;51.040;3.684;2022-11-20T14:35:26;14.60;90.80
36710;DHT22;22694;51.040;3.684;2022-11-20T14:37:53;14.60;90.80
36710;DHT22;22694;51.040;3.684;2022-11-20T14:42:51;14.60;90.90
36710;DHT22;22694;51.040;3.684;2022-11-20T14:45:18;14.70;90.90
36710;DHT22;22694;51.040;3.684;2022-11-20T14:47:44;14.70;91.00
36710;DHT22;22694;51.040;3.684;2022-11-20T14:50:21;14.70;91.00
36710;DHT22;22694;51.040;3.684;2022-11-20T14:53:05;14.70;91.00
36710;DHT22;22694;51.040;3.684;2022-11-20T14:55:36;14.70;90.90
36710;DHT22;22694;51.040;3.684;2022-11-20T14:58:20;14.70;90.90
36710;DHT22;22694;51.040;3.684;2022-11-20T15:01:01;14.70;90.90
36710;DHT22;22694;51.040;3.684;2022-11-20T15:03:37;14.70;90.90
36710;DHT22;22694;51.040;3.684;2022-11-20T15:06:04;14.70;90.90
36710;DHT22;22694;51.040;3.684;2022-11-20T15:08:30;14.70;90.80
36710;DHT22;22694;51.040;3.684;2022-11-20T15:10:56;14.70;90.80
36710;DHT22;22694;51.040;3.684;2022-11-20T15:13:32;14.70;90.80
36710;DHT22;22694;51.040;3.684;2022-11-20T15:16:02;14.70;90.80
36710;DHT22;22694;51.040;3.684;2022-11-20T15:18:31;14.70;90.80
36710;DHT22;22694;51.040;3.684;2022-11-20T15:21:01;14.70;90.80
36710;DHT22;22694;51.040;3.684;2022-11-20T15:23:27;14.80;90.80
36710;DHT22;22694;51.040;3.684;2022-11-20T15:25:53;14.80;90.90
36710;DHT22;22694;51.040;3.684;2022-11-20T15:28:29;14.90;91.20
36710;DHT22;22694;51.040;3.684;2022-11-20T15:30:55;14.90;91.30
36710;DHT22;22694;51.040;3.684;2022-11-20T15:33:23;15.00;91.50
36710;DHT22;22694;51.040;3.684;2022-11-20T15:35:49;15.10;91.70
36710;DHT22;22694;51.040;3.684;2022-11-20T15:38:14;15.10;91.70
36710;DHT22;22694;51.040;3.684;2022-11-20T15:40:40;15.20;91.90
36710;DHT22;22694;51.040;3.684;2022-11-20T15:43:06;15.10;91.60
36710;DHT22;22694;51.040;3.684;2022-11-20T15:45:44;15.10;91.50
36710;DHT22;22694;51.040;3.684;2022-11-20T15:48:20;15.10;91.50
36710;DHT22;22694;51.040;3.684;2022-11-20T15:51:03;15.10;91.50
36710;DHT22;22694;51.040;3.684;2022-11-20T15:53:31;15.20;92.70
36710;DHT22;22694;51.040;3.684;2022-11-20T15:55:56;15.40;92.90
36710;DHT22;22694;51.040;3.684;2022-11-20T15:58:22;15.50;92.40
36710;DHT22;22694;51.040;3.684;2022-11-20T16:00:49;15.60;92.00
36710;DHT22;22694;51.040;3.684;2022-11-20T16:03:16;15.70;91.40
36710;DHT22;22694;51.040;3.684;2022-11-20T16:05:42;15.80;91.00
36710;DHT22;22694;51.040;3.684;2022-11-20T16:08:07;15.80;90.80
36710;DHT22;22694;51.040;3.684;2022-11-20T16:10:33;15.90;90.60
36710;DHT22;22694;51.040;3.684;2022-11-20T16:12:58;15.80;90.30
36710;DHT22;22694;51.040;3.684;2022-11-20T16:15:52;15.70;90.30
36710;DHT22;22694;51.040;3.684;2022-11-20T16:18:21;15.50;89.90
36710;DHT22;22694;51.040;3.684;2022-11-20T16:20:50;15.40;89.50
36710;DHT22;22694;51.040;3.684;2022-11-20T16:23:16;15.30;89.20
36710;DHT22;22694;51.040;3.684;2022-11-20T16:25:42;15.20;89.40
36710;DHT22;22694;51.040;3.684;2022-11-20T16:28:08;15.10;89.50
36710;DHT22;22694;51.040;3.684;2022-11-20T16:30:34;15.10;89.70
36710;DHT22;22694;51.040;3.684;2022-11-20T16:33:01;15.00;90.00
36710;DHT22;22694;51.040;3.684;2022-11-20T16:35:28;15.00;90.10
36710;DHT22;22694;51.040;3.684;2022-11-20T16:37:57;15.00;90.10
36710;DHT22;22694;51.040;3.684;2022-11-20T16:40:24;14.90;90.00
36710;DHT22;22694;51.040;3.684;2022-11-20T16:42:50;14.80;90.00
36710;DHT22;22694;51.040;3.684;2022-11-20T16:45:16;14.90;90.30
36710;DHT22;22694;51.040;3.684;2022-11-20T16:47:42;14.80;90.40
36710;DHT22;22694;51.040;3.684;2022-11-20T16:50:08;14.80;90.70
36710;DHT22;22694;51.040;3.684;2022-11-20T16:52:34;14.80;90.80
36710;DHT22;22694;51.040;3.684;2022-11-20T16:55:00;14.80;90.90
36710;DHT22;22694;51.040;3.684;2022-11-20T16:57:29;14.80;91.10
36710;DHT22;22694;51.040;3.684;2022-11-20T16:59:57;14.80;91.20
36710;DHT22;22694;51.040;3.684;2022-11-20T17:02:23;14.80;91.30
36710;DHT22;22694;51.040;3.684;2022-11-20T17:04:48;14.80;91.30
36710;DHT22;22694;51.040;3.684;2022-11-20T17:07:14;14.70;91.20
36710;DHT22;22694;51.040;3.684;2022-11-20T17:09:40;14.80;91.10